sensor_id;sensor_type;location;lat;lon;timestamp;P1;durP1;ratioP1;P2;durP2;ratioP2
59468;SDS011;45277;52.768;18.262;2023-07-31T00:01:29;3.63;;;2.65;;
59468;SDS011;45277;52.768;18.262;2023-07-31T00:03:01;3.08;;;2.78;;
59468;SDS011;45277;52.768;18.262;2023-07-31T00:04:32;3.95;;;2.67;;
59468;SDS011;45277;52.768;18.262;2023-07-31T00:06:04;5.15;;;3.63;;
59468;SDS011;45277;52.768;18.262;2023-07-31T00:07:35;3.58;;;3.13;;
59468;SDS011;45277;52.768;18.262;2023-07-31T00:09:07;2.95;;;2.55;;
59468;SDS011;45277;52.768;18.262;2023-07-31T00:10:38;2.75;;;2.17;;
59468;SDS011;45277;52.768;18.262;2023-07-31T00:12:10;4.80;;;2.90;;
59468;SDS011;45277;52.768;18.262;2023-07-31T00:13:41;3.85;;;2.67;;
59468;SDS011;45277;52.768;18.262;2023-07-31T00:15:13;5.22;;;2.83;;
59468;SDS011;45277;52.768;18.262;2023-07-31T00:16:45;4.30;;;2.75;;
59468;SDS011;45277;52.768;18.262;2023-07-31T00:18:16;3.88;;;2.40;;
59468;SDS011;45277;52.768;18.262;2023-07-31T00:19:48;4.35;;;2.40;;
59468;SDS011;45277;52.768;18.262;2023-07-31T00:21:21;2.17;;;1.98;;
59468;SDS011;45277;52.768;18.262;2023-07-31T00:22:52;2.90;;;2.35;;
59468;SDS011;45277;52.768;18.262;2023-07-31T00:24:24;3.92;;;2.08;;
59468;SDS011;45277;52.768;18.262;2023-07-31T00:25:55;3.42;;;2.13;;
59468;SDS011;45277;52.768;18.262;2023-07-31T00:27:27;4.50;;;2.47;;
59468;SDS011;45277;52.768;18.262;2023-07-31T00:28:58;2.35;;;1.95;;
59468;SDS011;45277;52.768;18.262;2023-07-31T00:30:30;3.33;;;2.13;;
59468;SDS011;45277;52.768;18.262;2023-07-31T00:32:01;7.90;;;2.78;;
59468;SDS011;45277;52.768;18.262;2023-07-31T00:33:34;4.03;;;2.95;;
59468;SDS011;45277;52.768;18.262;2023-07-31T00:35:05;5.80;;;3.55;;
59468;SDS011;45277;52.768;18.262;2023-07-31T00:36:37;4.20;;;3.03;;
59468;SDS011;45277;52.768;18.262;2023-07-31T00:38:09;5.10;;;3.20;;
59468;SDS011;45277;52.768;18.262;2023-07-31T00:39:40;4.55;;;3.17;;
59468;SDS011;45277;52.768;18.262;2023-07-31T00:41:11;3.95;;;2.42;;
59468;SDS011;45277;52.768;18.262;2023-07-31T00:42:43;8.43;;;3.30;;
59468;SDS011;45277;52.768;18.262;2023-07-31T00:44:14;5.53;;;3.10;;
59468;SDS011;45277;52.768;18.262;2023-07-31T00:45:45;3.10;;;2.80;;
59468;SDS011;45277;52.768;18.262;2023-07-31T00:47:17;4.75;;;2.92;;
59468;SDS011;45277;52.768;18.262;2023-07-31T00:48:48;6.15;;;2.22;;
59468;SDS011;45277;52.768;18.262;2023-07-31T00:50:20;6.95;;;3.30;;
59468;SDS011;45277;52.768;18.262;2023-07-31T00:51:56;13.13;;;3.65;;
59468;SDS011;45277;52.768;18.262;2023-07-31T00:53:28;6.30;;;3.67;;
59468;SDS011;45277;52.768;18.262;2023-07-31T00:54:59;6.63;;;3.85;;
59468;SDS011;45277;52.768;18.262;2023-07-31T00:56:31;10.18;;;4.72;;
59468;SDS011;45277;52.768;18.262;2023-07-31T00:58:03;6.68;;;3.92;;
59468;SDS011;45277;52.768;18.262;2023-07-31T00:59:34;6.80;;;3.45;;
59468;SDS011;45277;52.768;18.262;2023-07-31T01:01:06;10.13;;;3.80;;
59468;SDS011;45277;52.768;18.262;2023-07-31T01:02:37;2.97;;;2.30;;
59468;SDS011;45277;52.768;18.262;2023-07-31T01:04:09;3.58;;;2.58;;
59468;SDS011;45277;52.768;18.262;2023-07-31T01:06:01;4.65;;;2.50;;
59468;SDS011;45277;52.768;18.262;2023-07-31T01:07:49;2.78;;;2.30;;
59468;SDS011;45277;52.768;18.262;2023-07-31T01:12:55;2.95;;;2.47;;
59468;SDS011;45277;52.768;18.262;2023-07-31T01:14:28;5.45;;;2.53;;
59468;SDS011;45277;52.768;18.262;2023-07-31T01:16:00;6.63;;;2.88;;
59468;SDS011;45277;52.768;18.262;2023-07-31T01:17:31;2.85;;;2.53;;
59468;SDS011;45277;52.768;18.262;2023-07-31T01:19:02;3.95;;;2.90;;
59468;SDS011;45277;52.768;18.262;2023-07-31T01:20:35;2.97;;;2.50;;
59468;SDS011;45277;52.768;18.262;2023-07-31T01:24:30;2.95;;;2.65;;
59468;SDS011;45277;52.768;18.262;2023-07-31T01:27:51;4.40;;;3.00;;
59468;SDS011;45277;52.768;18.262;2023-07-31T01:31:22;3.97;;;2.58;;
59468;SDS011;45277;52.768;18.262;2023-07-31T01:32:54;4.97;;;2.38;;
59468;SDS011;45277;52.768;18.262;2023-07-31T01:34:28;2.17;;;1.83;;
59468;SDS011;45277;52.768;18.262;2023-07-31T01:36:01;4.25;;;2.45;;
59468;SDS011;45277;52.768;18.262;2023-07-31T01:37:32;3.50;;;2.50;;
59468;SDS011;45277;52.768;18.262;2023-07-31T01:39:04;3.55;;;2.83;;
59468;SDS011;45277;52.768;18.262;2023-07-31T01:40:35;4.78;;;2.58;;
59468;SDS011;45277;52.768;18.262;2023-07-31T01:42:07;3.08;;;2.80;;
59468;SDS011;45277;52.768;18.262;2023-07-31T01:43:38;6.55;;;3.03;;
59468;SDS011;45277;52.768;18.262;2023-07-31T01:45:09;5.32;;;3.00;;
59468;SDS011;45277;52.768;18.262;2023-07-31T01:46:41;3.25;;;2.67;;
59468;SDS011;45277;52.768;18.262;2023-07-31T01:48:12;2.95;;;2.33;;
59468;SDS011;45277;52.768;18.262;2023-07-31T01:49:44;4.10;;;2.75;;
59468;SDS011;45277;52.768;18.262;2023-07-31T01:51:15;4.53;;;2.95;;
59468;SDS011;45277;52.768;18.262;2023-07-31T01:52:46;3.95;;;2.80;;
59468;SDS011;45277;52.768;18.262;2023-07-31T01:54:18;3.33;;;2.72;;
59468;SDS011;45277;52.768;18.262;2023-07-31T01:55:49;4.18;;;2.92;;
59468;SDS011;45277;52.768;18.262;2023-07-31T01:57:20;3.10;;;2.75;;
59468;SDS011;45277;52.768;18.262;2023-07-31T01:58:52;5.63;;;3.35;;
59468;SDS011;45277;52.768;18.262;2023-07-31T02:00:23;4.97;;;2.85;;
59468;SDS011;45277;52.768;18.262;2023-07-31T02:01:54;3.10;;;2.70;;
59468;SDS011;45277;52.768;18.262;2023-07-31T02:03:26;2.70;;;2.50;;
59468;SDS011;45277;52.768;18.262;2023-07-31T02:04:57;4.53;;;2.75;;
59468;SDS011;45277;52.768;18.262;2023-07-31T02:06:28;3.13;;;2.13;;
59468;SDS011;45277;52.768;18.262;2023-07-31T02:08:00;4.57;;;2.92;;
59468;SDS011;45277;52.768;18.262;2023-07-31T02:09:31;4.72;;;3.10;;
59468;SDS011;45277;52.768;18.262;2023-07-31T02:11:03;4.43;;;2.60;;
59468;SDS011;45277;52.768;18.262;2023-07-31T02:12:34;4.68;;;3.50;;
59468;SDS011;45277;52.768;18.262;2023-07-31T02:14:06;4.82;;;3.28;;
59468;SDS011;45277;52.768;18.262;2023-07-31T02:15:37;4.47;;;2.90;;
59468;SDS011;45277;52.768;18.262;2023-07-31T02:17:09;3.67;;;2.70;;
59468;SDS011;45277;52.768;18.262;2023-07-31T02:18:40;4.68;;;2.60;;
59468;SDS011;45277;52.768;18.262;2023-07-31T02:20:11;4.00;;;2.53;;
59468;SDS011;45277;52.768;18.262;2023-07-31T02:21:43;4.68;;;2.65;;
59468;SDS011;45277;52.768;18.262;2023-07-31T02:23:14;5.70;;;2.80;;
59468;SDS011;45277;52.768;18.262;2023-07-31T02:24:45;5.85;;;2.85;;
59468;SDS011;45277;52.768;18.262;2023-07-31T02:26:17;3.88;;;3.17;;
59468;SDS011;45277;52.768;18.262;2023-07-31T02:27:48;3.97;;;2.78;;
59468;SDS011;45277;52.768;18.262;2023-07-31T02:29:19;4.65;;;3.00;;
59468;SDS011;45277;52.768;18.262;2023-07-31T02:30:51;4.80;;;2.83;;
59468;SDS011;45277;52.768;18.262;2023-07-31T02:32:22;4.45;;;2.70;;
59468;SDS011;45277;52.768;18.262;2023-07-31T02:33:53;5.47;;;2.47;;
59468;SDS011;45277;52.768;18.262;2023-07-31T02:35:25;3.78;;;2.53;;
59468;SDS011;45277;52.768;18.262;2023-07-31T02:36:56;5.38;;;2.80;;
59468;SDS011;45277;52.768;18.262;2023-07-31T02:38:27;4.10;;;2.70;;
59468;SDS011;45277;52.768;18.262;2023-07-31T02:39:59;4.72;;;2.88;;
59468;SDS011;45277;52.768;18.262;2023-07-31T02:41:30;4.10;;;2.95;;
59468;SDS011;45277;52.768;18.262;2023-07-31T02:43:01;5.55;;;2.47;;
59468;SDS011;45277;52.768;18.262;2023-07-31T02:44:33;3.42;;;3.13;;
59468;SDS011;45277;52.768;18.262;2023-07-31T02:46:04;4.63;;;3.00;;
59468;SDS011;45277;52.768;18.262;2023-07-31T02:47:35;4.45;;;2.90;;
59468;SDS011;45277;52.768;18.262;2023-07-31T02:49:07;3.92;;;3.05;;
59468;SDS011;45277;52.768;18.262;2023-07-31T02:50:38;3.92;;;3.20;;
59468;SDS011;45277;52.768;18.262;2023-07-31T02:52:09;6.45;;;3.10;;
59468;SDS011;45277;52.768;18.262;2023-07-31T02:53:41;4.72;;;3.22;;
59468;SDS011;45277;52.768;18.262;2023-07-31T02:55:12;5.03;;;3.08;;
59468;SDS011;45277;52.768;18.262;2023-07-31T02:56:43;5.18;;;3.10;;
59468;SDS011;45277;52.768;18.262;2023-07-31T02:58:15;4.85;;;3.10;;
59468;SDS011;45277;52.768;18.262;2023-07-31T02:59:46;6.65;;;3.30;;
59468;SDS011;45277;52.768;18.262;2023-07-31T03:01:17;7.25;;;3.28;;
59468;SDS011;45277;52.768;18.262;2023-07-31T03:02:49;5.35;;;3.35;;
59468;SDS011;45277;52.768;18.262;2023-07-31T03:04:20;4.43;;;3.38;;
59468;SDS011;45277;52.768;18.262;2023-07-31T03:05:51;6.72;;;3.28;;
59468;SDS011;45277;52.768;18.262;2023-07-31T03:07:23;4.90;;;3.28;;
59468;SDS011;45277;52.768;18.262;2023-07-31T03:08:55;4.00;;;3.30;;
59468;SDS011;45277;52.768;18.262;2023-07-31T03:10:26;5.00;;;3.42;;
59468;SDS011;45277;52.768;18.262;2023-07-31T03:11:58;6.07;;;3.30;;
59468;SDS011;45277;52.768;18.262;2023-07-31T03:13:29;4.40;;;3.10;;
59468;SDS011;45277;52.768;18.262;2023-07-31T03:15:00;2.70;;;2.45;;
59468;SDS011;45277;52.768;18.262;2023-07-31T03:16:32;3.88;;;3.40;;
59468;SDS011;45277;52.768;18.262;2023-07-31T03:18:03;4.20;;;2.60;;
59468;SDS011;45277;52.768;18.262;2023-07-31T03:19:34;4.43;;;3.10;;
59468;SDS011;45277;52.768;18.262;2023-07-31T03:21:06;5.13;;;3.22;;
59468;SDS011;45277;52.768;18.262;2023-07-31T03:22:37;6.63;;;3.08;;
59468;SDS011;45277;52.768;18.262;2023-07-31T03:24:08;5.13;;;3.13;;
59468;SDS011;45277;52.768;18.262;2023-07-31T03:25:41;3.85;;;2.90;;
59468;SDS011;45277;52.768;18.262;2023-07-31T03:27:29;5.22;;;3.08;;
59468;SDS011;45277;52.768;18.262;2023-07-31T03:29:00;4.00;;;3.30;;
59468;SDS011;45277;52.768;18.262;2023-07-31T03:30:32;5.35;;;3.28;;
59468;SDS011;45277;52.768;18.262;2023-07-31T03:32:08;4.35;;;3.00;;
59468;SDS011;45277;52.768;18.262;2023-07-31T03:33:39;4.05;;;2.42;;
59468;SDS011;45277;52.768;18.262;2023-07-31T03:35:11;4.65;;;3.00;;
59468;SDS011;45277;52.768;18.262;2023-07-31T03:36:42;3.92;;;2.95;;
59468;SDS011;45277;52.768;18.262;2023-07-31T03:38:14;5.35;;;3.22;;
59468;SDS011;45277;52.768;18.262;2023-07-31T03:39:46;3.70;;;3.10;;
59468;SDS011;45277;52.768;18.262;2023-07-31T03:41:17;5.57;;;3.00;;
59468;SDS011;45277;52.768;18.262;2023-07-31T03:42:48;7.32;;;3.17;;
59468;SDS011;45277;52.768;18.262;2023-07-31T03:44:20;7.82;;;3.47;;
59468;SDS011;45277;52.768;18.262;2023-07-31T03:45:51;5.13;;;3.25;;
59468;SDS011;45277;52.768;18.262;2023-07-31T03:47:22;4.70;;;3.45;;
59468;SDS011;45277;52.768;18.262;2023-07-31T03:48:54;4.57;;;3.30;;
59468;SDS011;45277;52.768;18.262;2023-07-31T03:50:25;5.80;;;3.03;;
59468;SDS011;45277;52.768;18.262;2023-07-31T03:51:56;4.00;;;2.80;;
59468;SDS011;45277;52.768;18.262;2023-07-31T03:53:28;4.88;;;3.25;;
59468;SDS011;45277;52.768;18.262;2023-07-31T03:54:59;3.80;;;3.40;;
59468;SDS011;45277;52.768;18.262;2023-07-31T03:56:31;5.07;;;3.20;;
59468;SDS011;45277;52.768;18.262;2023-07-31T03:58:02;5.93;;;3.35;;
59468;SDS011;45277;52.768;18.262;2023-07-31T03:59:33;6.25;;;3.10;;
59468;SDS011;45277;52.768;18.262;2023-07-31T04:01:05;5.32;;;3.50;;
59468;SDS011;45277;52.768;18.262;2023-07-31T04:02:37;4.78;;;3.28;;
59468;SDS011;45277;52.768;18.262;2023-07-31T04:04:08;5.18;;;3.17;;
59468;SDS011;45277;52.768;18.262;2023-07-31T04:05:39;3.55;;;3.25;;
59468;SDS011;45277;52.768;18.262;2023-07-31T04:07:11;4.82;;;3.28;;
59468;SDS011;45277;52.768;18.262;2023-07-31T04:08:42;6.55;;;3.38;;
59468;SDS011;45277;52.768;18.262;2023-07-31T04:10:14;3.95;;;3.42;;
59468;SDS011;45277;52.768;18.262;2023-07-31T04:11:45;7.40;;;3.22;;
59468;SDS011;45277;52.768;18.262;2023-07-31T04:13:16;4.00;;;3.20;;
59468;SDS011;45277;52.768;18.262;2023-07-31T04:14:48;4.43;;;3.28;;
59468;SDS011;45277;52.768;18.262;2023-07-31T04:16:19;6.07;;;3.78;;
59468;SDS011;45277;52.768;18.262;2023-07-31T04:17:50;7.80;;;3.22;;
59468;SDS011;45277;52.768;18.262;2023-07-31T04:19:22;5.32;;;2.92;;
59468;SDS011;45277;52.768;18.262;2023-07-31T04:20:53;5.13;;;2.85;;
59468;SDS011;45277;52.768;18.262;2023-07-31T04:22:25;5.75;;;3.63;;
59468;SDS011;45277;52.768;18.262;2023-07-31T04:23:56;7.60;;;3.28;;
59468;SDS011;45277;52.768;18.262;2023-07-31T04:25:29;5.60;;;3.25;;
59468;SDS011;45277;52.768;18.262;2023-07-31T04:27:00;5.25;;;3.50;;
59468;SDS011;45277;52.768;18.262;2023-07-31T04:28:31;5.22;;;3.08;;
59468;SDS011;45277;52.768;18.262;2023-07-31T04:30:03;4.35;;;3.30;;
59468;SDS011;45277;52.768;18.262;2023-07-31T04:31:35;3.55;;;2.83;;
59468;SDS011;45277;52.768;18.262;2023-07-31T04:33:06;5.75;;;3.33;;
59468;SDS011;45277;52.768;18.262;2023-07-31T04:34:38;7.05;;;3.15;;
59468;SDS011;45277;52.768;18.262;2023-07-31T04:36:09;3.58;;;2.95;;
59468;SDS011;45277;52.768;18.262;2023-07-31T04:37:40;4.30;;;3.00;;
59468;SDS011;45277;52.768;18.262;2023-07-31T04:39:12;4.25;;;3.28;;
59468;SDS011;45277;52.768;18.262;2023-07-31T04:40:43;3.72;;;2.80;;
59468;SDS011;45277;52.768;18.262;2023-07-31T04:42:14;5.13;;;3.08;;
59468;SDS011;45277;52.768;18.262;2023-07-31T04:43:46;3.75;;;2.88;;
59468;SDS011;45277;52.768;18.262;2023-07-31T04:45:17;4.93;;;2.70;;
59468;SDS011;45277;52.768;18.262;2023-07-31T04:46:48;6.28;;;3.05;;
59468;SDS011;45277;52.768;18.262;2023-07-31T04:48:20;5.97;;;3.00;;
59468;SDS011;45277;52.768;18.262;2023-07-31T04:49:52;3.80;;;2.67;;
59468;SDS011;45277;52.768;18.262;2023-07-31T04:51:23;4.15;;;3.00;;
59468;SDS011;45277;52.768;18.262;2023-07-31T04:52:56;2.70;;;2.30;;
59468;SDS011;45277;52.768;18.262;2023-07-31T04:54:28;4.32;;;2.72;;
59468;SDS011;45277;52.768;18.262;2023-07-31T04:56:00;5.72;;;2.80;;
59468;SDS011;45277;52.768;18.262;2023-07-31T04:57:31;3.75;;;2.58;;
59468;SDS011;45277;52.768;18.262;2023-07-31T04:59:03;2.92;;;2.30;;
59468;SDS011;45277;52.768;18.262;2023-07-31T05:00:34;5.03;;;2.53;;
59468;SDS011;45277;52.768;18.262;2023-07-31T05:02:06;9.70;;;2.90;;
59468;SDS011;45277;52.768;18.262;2023-07-31T05:03:38;3.88;;;2.60;;
59468;SDS011;45277;52.768;18.262;2023-07-31T05:05:10;4.75;;;2.72;;
59468;SDS011;45277;52.768;18.262;2023-07-31T05:06:41;4.78;;;2.67;;
59468;SDS011;45277;52.768;18.262;2023-07-31T05:08:13;3.28;;;2.60;;
59468;SDS011;45277;52.768;18.262;2023-07-31T05:09:44;4.35;;;2.60;;
59468;SDS011;45277;52.768;18.262;2023-07-31T05:11:15;3.78;;;2.63;;
59468;SDS011;45277;52.768;18.262;2023-07-31T05:12:47;3.90;;;2.55;;
59468;SDS011;45277;52.768;18.262;2023-07-31T05:14:18;2.33;;;2.15;;
59468;SDS011;45277;52.768;18.262;2023-07-31T05:15:51;2.60;;;2.40;;
59468;SDS011;45277;52.768;18.262;2023-07-31T05:17:22;4.47;;;3.33;;
59468;SDS011;45277;52.768;18.262;2023-07-31T05:18:53;5.53;;;2.38;;
59468;SDS011;45277;52.768;18.262;2023-07-31T05:20:25;3.28;;;2.40;;
59468;SDS011;45277;52.768;18.262;2023-07-31T05:21:56;4.22;;;2.40;;
59468;SDS011;45277;52.768;18.262;2023-07-31T05:23:27;2.90;;;2.60;;
59468;SDS011;45277;52.768;18.262;2023-07-31T05:24:59;6.20;;;2.35;;
59468;SDS011;45277;52.768;18.262;2023-07-31T05:26:30;2.67;;;2.10;;
59468;SDS011;45277;52.768;18.262;2023-07-31T05:28:01;2.60;;;2.38;;
59468;SDS011;45277;52.768;18.262;2023-07-31T05:29:33;2.65;;;2.30;;
59468;SDS011;45277;52.768;18.262;2023-07-31T05:31:04;2.90;;;2.55;;
59468;SDS011;45277;52.768;18.262;2023-07-31T05:32:36;2.63;;;2.42;;
59468;SDS011;45277;52.768;18.262;2023-07-31T05:34:07;3.67;;;2.38;;
59468;SDS011;45277;52.768;18.262;2023-07-31T05:35:39;3.42;;;2.40;;
59468;SDS011;45277;52.768;18.262;2023-07-31T05:37:10;2.88;;;2.35;;
59468;SDS011;45277;52.768;18.262;2023-07-31T05:38:42;2.40;;;2.03;;
59468;SDS011;45277;52.768;18.262;2023-07-31T05:40:17;2.13;;;1.85;;
59468;SDS011;45277;52.768;18.262;2023-07-31T05:41:48;3.67;;;2.15;;
59468;SDS011;45277;52.768;18.262;2023-07-31T05:43:20;4.93;;;2.35;;
59468;SDS011;45277;52.768;18.262;2023-07-31T05:44:51;4.57;;;2.10;;
59468;SDS011;45277;52.768;18.262;2023-07-31T05:46:22;4.28;;;2.25;;
59468;SDS011;45277;52.768;18.262;2023-07-31T05:47:54;3.10;;;1.88;;
59468;SDS011;45277;52.768;18.262;2023-07-31T05:49:25;8.95;;;7.05;;
59468;SDS011;45277;52.768;18.262;2023-07-31T05:50:57;4.00;;;2.50;;
59468;SDS011;45277;52.768;18.262;2023-07-31T05:52:28;2.40;;;2.10;;
59468;SDS011;45277;52.768;18.262;2023-07-31T05:53:59;4.90;;;2.30;;
59468;SDS011;45277;52.768;18.262;2023-07-31T05:55:31;4.95;;;1.88;;
59468;SDS011;45277;52.768;18.262;2023-07-31T05:57:02;3.60;;;2.10;;
59468;SDS011;45277;52.768;18.262;2023-07-31T05:58:34;2.55;;;1.90;;
59468;SDS011;45277;52.768;18.262;2023-07-31T06:00:05;3.20;;;2.25;;
59468;SDS011;45277;52.768;18.262;2023-07-31T06:01:37;4.22;;;2.35;;
59468;SDS011;45277;52.768;18.262;2023-07-31T06:03:09;3.28;;;1.73;;
59468;SDS011;45277;52.768;18.262;2023-07-31T06:04:41;2.72;;;2.13;;
59468;SDS011;45277;52.768;18.262;2023-07-31T06:06:12;5.57;;;2.08;;
59468;SDS011;45277;52.768;18.262;2023-07-31T06:07:44;4.88;;;2.20;;
59468;SDS011;45277;52.768;18.262;2023-07-31T06:09:15;2.38;;;1.95;;
59468;SDS011;45277;52.768;18.262;2023-07-31T06:10:47;2.45;;;1.85;;
59468;SDS011;45277;52.768;18.262;2023-07-31T06:12:18;3.70;;;2.08;;
59468;SDS011;45277;52.768;18.262;2023-07-31T06:13:50;2.28;;;1.90;;
59468;SDS011;45277;52.768;18.262;2023-07-31T06:15:21;4.70;;;2.00;;
59468;SDS011;45277;52.768;18.262;2023-07-31T06:16:52;4.88;;;1.65;;
59468;SDS011;45277;52.768;18.262;2023-07-31T06:18:24;3.85;;;2.08;;
59468;SDS011;45277;52.768;18.262;2023-07-31T06:19:56;2.65;;;1.90;;
59468;SDS011;45277;52.768;18.262;2023-07-31T06:21:27;3.28;;;2.10;;
59468;SDS011;45277;52.768;18.262;2023-07-31T06:23:00;3.55;;;2.03;;
59468;SDS011;45277;52.768;18.262;2023-07-31T06:24:32;2.30;;;1.80;;
59468;SDS011;45277;52.768;18.262;2023-07-31T06:26:03;2.38;;;1.65;;
59468;SDS011;45277;52.768;18.262;2023-07-31T06:27:34;4.53;;;2.50;;
59468;SDS011;45277;52.768;18.262;2023-07-31T06:29:06;2.75;;;1.98;;
59468;SDS011;45277;52.768;18.262;2023-07-31T06:30:38;3.05;;;1.98;;
59468;SDS011;45277;52.768;18.262;2023-07-31T06:32:09;1.88;;;1.77;;
59468;SDS011;45277;52.768;18.262;2023-07-31T06:33:41;1.60;;;1.50;;
59468;SDS011;45277;52.768;18.262;2023-07-31T06:35:12;1.90;;;1.80;;
59468;SDS011;45277;52.768;18.262;2023-07-31T06:36:43;3.13;;;1.80;;
59468;SDS011;45277;52.768;18.262;2023-07-31T06:38:15;3.20;;;2.30;;
59468;SDS011;45277;52.768;18.262;2023-07-31T06:39:46;2.08;;;1.80;;
59468;SDS011;45277;52.768;18.262;2023-07-31T06:41:18;3.75;;;2.40;;
59468;SDS011;45277;52.768;18.262;2023-07-31T06:42:50;2.88;;;1.73;;
59468;SDS011;45277;52.768;18.262;2023-07-31T06:44:21;5.60;;;2.13;;
59468;SDS011;45277;52.768;18.262;2023-07-31T06:45:53;2.47;;;2.22;;
59468;SDS011;45277;52.768;18.262;2023-07-31T06:47:24;4.07;;;2.08;;
59468;SDS011;45277;52.768;18.262;2023-07-31T06:48:56;2.78;;;2.08;;
59468;SDS011;45277;52.768;18.262;2023-07-31T06:50:28;5.10;;;2.03;;
59468;SDS011;45277;52.768;18.262;2023-07-31T06:52:03;3.63;;;2.38;;
59468;SDS011;45277;52.768;18.262;2023-07-31T06:53:35;2.00;;;1.80;;
59468;SDS011;45277;52.768;18.262;2023-07-31T06:55:25;1.80;;;1.70;;
59468;SDS011;45277;52.768;18.262;2023-07-31T06:56:57;1.65;;;1.55;;
59468;SDS011;45277;52.768;18.262;2023-07-31T06:58:28;2.38;;;2.10;;
59468;SDS011;45277;52.768;18.262;2023-07-31T06:59:59;2.33;;;2.13;;
59468;SDS011;45277;52.768;18.262;2023-07-31T07:01:31;3.63;;;2.13;;
59468;SDS011;45277;52.768;18.262;2023-07-31T07:03:02;1.83;;;1.73;;
59468;SDS011;45277;52.768;18.262;2023-07-31T07:04:34;2.20;;;1.85;;
59468;SDS011;45277;52.768;18.262;2023-07-31T07:06:06;10.35;;;1.80;;
59468;SDS011;45277;52.768;18.262;2023-07-31T07:07:37;2.35;;;2.15;;
59468;SDS011;45277;52.768;18.262;2023-07-31T07:09:09;5.40;;;2.17;;
59468;SDS011;45277;52.768;18.262;2023-07-31T07:10:41;2.35;;;2.00;;
59468;SDS011;45277;52.768;18.262;2023-07-31T07:12:12;1.70;;;1.60;;
59468;SDS011;45277;52.768;18.262;2023-07-31T07:13:44;4.93;;;1.83;;
59468;SDS011;45277;52.768;18.262;2023-07-31T07:15:16;4.85;;;2.20;;
59468;SDS011;45277;52.768;18.262;2023-07-31T07:16:50;2.40;;;1.63;;
59468;SDS011;45277;52.768;18.262;2023-07-31T07:18:22;2.47;;;1.50;;
59468;SDS011;45277;52.768;18.262;2023-07-31T07:19:54;6.47;;;1.55;;
59468;SDS011;45277;52.768;18.262;2023-07-31T07:21:26;1.85;;;1.50;;
59468;SDS011;45277;52.768;18.262;2023-07-31T07:22:58;4.65;;;1.92;;
59468;SDS011;45277;52.768;18.262;2023-07-31T07:24:30;2.60;;;1.63;;
59468;SDS011;45277;52.768;18.262;2023-07-31T07:26:01;2.80;;;2.00;;
59468;SDS011;45277;52.768;18.262;2023-07-31T07:27:33;2.72;;;1.70;;
59468;SDS011;45277;52.768;18.262;2023-07-31T07:29:05;4.13;;;1.80;;
59468;SDS011;45277;52.768;18.262;2023-07-31T07:30:38;2.20;;;1.67;;
59468;SDS011;45277;52.768;18.262;2023-07-31T07:32:11;2.88;;;1.60;;
59468;SDS011;45277;52.768;18.262;2023-07-31T07:33:43;2.45;;;1.60;;
59468;SDS011;45277;52.768;18.262;2023-07-31T07:35:15;3.22;;;1.60;;
59468;SDS011;45277;52.768;18.262;2023-07-31T07:36:46;3.25;;;1.50;;
59468;SDS011;45277;52.768;18.262;2023-07-31T07:38:18;1.75;;;1.60;;
59468;SDS011;45277;52.768;18.262;2023-07-31T07:39:49;1.67;;;1.40;;
59468;SDS011;45277;52.768;18.262;2023-07-31T07:41:21;3.08;;;1.50;;
59468;SDS011;45277;52.768;18.262;2023-07-31T07:42:53;2.42;;;1.70;;
59468;SDS011;45277;52.768;18.262;2023-07-31T07:44:24;5.13;;;1.70;;
59468;SDS011;45277;52.768;18.262;2023-07-31T07:45:57;2.95;;;1.83;;
59468;SDS011;45277;52.768;18.262;2023-07-31T07:47:29;4.13;;;1.73;;
59468;SDS011;45277;52.768;18.262;2023-07-31T07:49:00;3.15;;;1.98;;
59468;SDS011;45277;52.768;18.262;2023-07-31T07:50:32;2.10;;;1.88;;
59468;SDS011;45277;52.768;18.262;2023-07-31T07:52:04;2.17;;;1.65;;
59468;SDS011;45277;52.768;18.262;2023-07-31T07:53:35;3.47;;;2.53;;
59468;SDS011;45277;52.768;18.262;2023-07-31T07:55:07;2.53;;;1.70;;
59468;SDS011;45277;52.768;18.262;2023-07-31T07:56:39;4.15;;;2.10;;
59468;SDS011;45277;52.768;18.262;2023-07-31T07:58:10;5.00;;;1.95;;
59468;SDS011;45277;52.768;18.262;2023-07-31T07:59:42;4.55;;;2.00;;
59468;SDS011;45277;52.768;18.262;2023-07-31T08:01:14;2.60;;;2.10;;
59468;SDS011;45277;52.768;18.262;2023-07-31T08:02:45;6.00;;;3.05;;
59468;SDS011;45277;52.768;18.262;2023-07-31T08:04:17;3.10;;;1.92;;
59468;SDS011;45277;52.768;18.262;2023-07-31T08:05:48;3.60;;;2.10;;
59468;SDS011;45277;52.768;18.262;2023-07-31T08:07:20;2.00;;;1.75;;
59468;SDS011;45277;52.768;18.262;2023-07-31T08:08:52;3.25;;;2.30;;
59468;SDS011;45277;52.768;18.262;2023-07-31T08:10:24;2.60;;;1.90;;
59468;SDS011;45277;52.768;18.262;2023-07-31T08:11:55;5.25;;;1.70;;
59468;SDS011;45277;52.768;18.262;2023-07-31T08:13:32;2.30;;;1.90;;
59468;SDS011;45277;52.768;18.262;2023-07-31T08:15:05;2.75;;;1.90;;
59468;SDS011;45277;52.768;18.262;2023-07-31T08:16:37;4.50;;;2.22;;
59468;SDS011;45277;52.768;18.262;2023-07-31T08:18:09;3.88;;;1.83;;
59468;SDS011;45277;52.768;18.262;2023-07-31T08:19:42;3.25;;;1.77;;
59468;SDS011;45277;52.768;18.262;2023-07-31T08:21:14;3.05;;;2.20;;
59468;SDS011;45277;52.768;18.262;2023-07-31T08:22:46;4.30;;;1.83;;
59468;SDS011;45277;52.768;18.262;2023-07-31T08:24:17;3.88;;;2.60;;
59468;SDS011;45277;52.768;18.262;2023-07-31T08:25:49;2.33;;;2.10;;
59468;SDS011;45277;52.768;18.262;2023-07-31T08:27:21;6.00;;;2.50;;
59468;SDS011;45277;52.768;18.262;2023-07-31T08:28:53;2.65;;;1.90;;
59468;SDS011;45277;52.768;18.262;2023-07-31T08:30:24;4.07;;;2.20;;
59468;SDS011;45277;52.768;18.262;2023-07-31T08:31:55;2.90;;;2.17;;
59468;SDS011;45277;52.768;18.262;2023-07-31T08:33:27;3.92;;;2.22;;
59468;SDS011;45277;52.768;18.262;2023-07-31T08:34:59;2.83;;;2.13;;
59468;SDS011;45277;52.768;18.262;2023-07-31T08:36:31;3.25;;;2.30;;
59468;SDS011;45277;52.768;18.262;2023-07-31T08:38:03;4.25;;;2.22;;
59468;SDS011;45277;52.768;18.262;2023-07-31T08:39:34;3.70;;;2.50;;
59468;SDS011;45277;52.768;18.262;2023-07-31T08:41:06;5.53;;;2.13;;
59468;SDS011;45277;52.768;18.262;2023-07-31T08:42:46;3.63;;;2.75;;
59468;SDS011;45277;52.768;18.262;2023-07-31T08:44:21;1.52;;;1.42;;
59468;SDS011;45277;52.768;18.262;2023-07-31T08:45:53;2.55;;;2.22;;
59468;SDS011;45277;52.768;18.262;2023-07-31T08:47:26;4.57;;;2.20;;
59468;SDS011;45277;52.768;18.262;2023-07-31T08:48:59;1.92;;;1.80;;
59468;SDS011;45277;52.768;18.262;2023-07-31T08:50:31;4.63;;;2.55;;
59468;SDS011;45277;52.768;18.262;2023-07-31T08:52:02;2.67;;;2.42;;
59468;SDS011;45277;52.768;18.262;2023-07-31T08:53:34;2.30;;;2.03;;
59468;SDS011;45277;52.768;18.262;2023-07-31T08:55:06;4.38;;;2.40;;
59468;SDS011;45277;52.768;18.262;2023-07-31T08:56:38;3.20;;;2.38;;
59468;SDS011;45277;52.768;18.262;2023-07-31T08:58:11;4.03;;;2.28;;
59468;SDS011;45277;52.768;18.262;2023-07-31T08:59:43;3.47;;;2.25;;
59468;SDS011;45277;52.768;18.262;2023-07-31T09:01:17;2.78;;;2.03;;
59468;SDS011;45277;52.768;18.262;2023-07-31T09:02:54;2.75;;;1.70;;
59468;SDS011;45277;52.768;18.262;2023-07-31T09:04:28;4.85;;;2.15;;
59468;SDS011;45277;52.768;18.262;2023-07-31T09:06:01;4.80;;;2.13;;
59468;SDS011;45277;52.768;18.262;2023-07-31T09:07:34;2.53;;;1.90;;
59468;SDS011;45277;52.768;18.262;2023-07-31T09:09:06;4.35;;;1.80;;
59468;SDS011;45277;52.768;18.262;2023-07-31T09:10:41;6.22;;;2.17;;
59468;SDS011;45277;52.768;18.262;2023-07-31T09:12:13;3.97;;;2.05;;
59468;SDS011;45277;52.768;18.262;2023-07-31T09:13:44;4.53;;;1.85;;
59468;SDS011;45277;52.768;18.262;2023-07-31T09:15:17;3.70;;;2.35;;